Time;durP1;ratioP1;P1;durP2;ratioP2;P2;SDS_P1;SDS_P2;PMS_P1;PMS_P2;Temp;Humidity;BMP_temperature;BMP_pressure;BME280_temperature;BME280_humidity;BME280_pressure;Samples;Min_cycle;Max_cycle;Signal;HPM_P1;HPM_P2
2022/11/14 00:00:58;;;;;;;;;41.50;36.00;;;;;9.32;76.93;100548.22;5077316;28;46356;-74
2022/11/14 00:03:23;;;;;;;;;48.00;41.00;;;;;9.31;76.98;100543.03;5076779;28;45620;-75
2022/11/14 00:05:49;;;;;;;;;50.00;42.00;;;;;9.32;77.01;100544.72;5076749;28;45417;-73
2022/11/14 00:08:20;;;;;;;;;46.75;40.00;;;;;9.34;76.89;100545.53;5076867;28;45595;-73
2022/11/14 00:10:47;;;;;;;;;39.00;35.50;;;;;9.33;77.61;100544.69;5076418;28;46446;-76
2022/11/14 00:13:14;;;;;;;;;47.50;40.25;;;;;9.31;77.07;100543.03;5076445;27;45556;-76
2022/11/14 00:15:39;;;;;;;;;37.00;34.00;;;;;9.31;76.80;100543.91;5074725;27;45272;-74
2022/11/14 00:18:05;;;;;;;;;37.25;34.25;;;;;9.30;77.08;100536.06;5056347;28;45701;-74
2022/11/14 00:20:31;;;;;;;;;39.50;35.75;;;;;9.23;76.91;100526.69;5061813;28;46380;-74
2022/11/14 00:22:57;;;;;;;;;42.00;36.75;;;;;9.23;77.17;100524.06;5075879;28;45339;-74
2022/11/14 00:25:22;;;;;;;;;35.00;33.25;;;;;9.19;77.16;100529.41;5084101;27;45352;-75
2022/11/14 00:27:48;;;;;;;;;34.50;31.75;;;;;9.27;77.51;100531.78;5084082;27;45550;-76
2022/11/14 00:30:13;;;;;;;;;40.50;34.75;;;;;9.27;77.33;100530.91;5076594;27;46099;-74
2022/11/14 00:32:39;;;;;;;;;41.50;37.00;;;;;9.27;77.11;100530.91;5074542;28;45318;-74
2022/11/14 00:35:05;;;;;;;;;40.25;35.75;;;;;9.20;77.20;100520.63;5055217;28;45406;-74
2022/11/14 00:37:31;;;;;;;;;38.75;34.50;;;;;9.05;77.64;100506.31;5056838;28;45637;-74
2022/11/14 00:39:56;;;;;;;;;39.25;35.75;;;;;9.15;77.46;100519.94;5056725;28;46348;-73
2022/11/14 00:42:21;;;;;;;;;31.75;31.25;;;;;9.13;77.12;100518.31;5057957;28;45196;-74
2022/11/14 00:44:47;;;;;;;;;31.00;30.75;;;;;9.08;77.17;100507.94;5074112;27;45346;-78
2022/11/14 00:47:12;;;;;;;;;37.50;33.75;;;;;9.12;77.33;100519.22;5073079;27;45524;-78
2022/11/14 00:49:37;;;;;;;;;33.00;32.00;;;;;9.08;77.09;100505.31;5081615;27;45389;-77
2022/11/14 00:52:03;;;;;;;;;34.50;33.25;;;;;9.11;76.87;100515.72;5076744;27;45351;-77
2022/11/14 00:54:28;;;;;;;;;36.25;33.75;;;;;9.10;77.08;100508.75;5074755;27;45362;-79
2022/11/14 00:56:53;;;;;;;;;33.75;32.00;;;;;9.15;77.15;100513.84;5073053;28;45391;-77
2022/11/14 00:59:19;;;;;;;;;35.50;32.75;;;;;9.14;77.21;100506.91;5069464;27;45509;-77
2022/11/14 01:01:44;;;;;;;;;33.50;32.00;;;;;9.15;77.02;100514.69;5075000;27;45292;-77
2022/11/14 01:04:09;;;;;;;;;12.50;12.50;;;;;9.14;77.38;100505.13;5075458;28;45371;-76
2022/11/14 01:06:35;;;;;;;;;39.00;35.50;;;;;9.13;77.14;100503.41;5077360;27;45351;-77
2022/11/14 01:09:00;;;;;;;;;34.75;32.50;;;;;9.12;77.08;100508.72;5076512;27;51095;-78
2022/11/14 01:11:25;;;;;;;;;40.50;35.75;;;;;9.07;77.14;100508.88;5076711;28;45346;-77
2022/11/14 01:13:51;;;;;;;;;40.00;36.00;;;;;9.06;77.08;100512.41;5076708;28;45310;-78
2022/11/14 01:16:16;;;;;;;;;35.00;32.50;;;;;9.07;77.35;100498.38;5077930;27;45325;-78
2022/11/14 01:18:42;;;;;;;;;40.50;36.00;;;;;9.07;77.17;100498.38;5080697;28;45998;-78
2022/11/14 01:21:10;;;;;;;;;42.00;36.75;;;;;9.05;76.99;100493.19;5077871;27;45379;-77
2022/11/14 01:23:36;;;;;;;;;38.50;35.50;;;;;9.04;77.43;100488.84;5075420;27;45460;-77
2022/11/14 01:26:07;;;;;;;;;40.25;35.50;;;;;9.07;77.16;100490.50;5077254;27;45494;-76
2022/11/14 01:28:33;;;;;;;;;39.50;35.50;;;;;9.01;77.16;100481.09;5076419;27;46397;-77
2022/11/14 01:31:08;;;;;;;;;42.00;37.00;;;;;9.02;77.42;100481.94;5075548;27;45402;-78
2022/11/14 01:33:34;;;;;;;;;35.25;32.75;;;;;9.05;77.41;100487.06;5076597;27;45516;-78
2022/11/14 01:35:59;;;;;;;;;42.00;35.75;;;;;9.05;77.43;100477.44;5077158;27;45224;-79
2022/11/14 01:38:24;;;;;;;;;39.50;34.00;;;;;9.04;77.27;100470.47;5063216;27;45947;-78
2022/11/14 01:40:50;;;;;;;;;42.50;36.50;;;;;8.99;77.24;100464.50;5054251;28;45497;-78
2022/11/14 01:43:15;;;;;;;;;38.75;34.25;;;;;9.03;77.23;100473.16;5055348;28;45785;-77
2022/11/14 01:45:52;;;;;;;;;42.50;37.00;;;;;9.03;77.40;100468.78;5056581;28;45481;-77
2022/11/14 01:48:25;;;;;;;;;39.50;35.75;;;;;9.03;77.11;100467.91;5056812;28;46459;-78
2022/11/14 01:50:56;;;;;;;;;41.25;35.75;;;;;9.00;76.96;100454.91;5056065;28;45328;-76
2022/11/14 01:53:22;;;;;;;;;36.75;33.75;;;;;8.98;76.94;100454.94;5054267;28;45404;-79
2022/11/14 01:55:48;;;;;;;;;38.50;34.25;;;;;8.99;77.57;100450.56;5055948;28;45352;-78
2022/11/14 01:58:15;;;;;;;;;43.00;38.00;;;;;8.98;77.58;100452.31;5055811;28;45424;-77
2022/11/14 02:00:41;;;;;;;;;40.00;35.75;;;;;9.01;77.50;100460.09;5055405;28;45222;-77
2022/11/14 02:03:07;;;;;;;;;42.75;36.75;;;;;9.03;77.24;100460.03;5054333;28;45189;-78
2022/11/14 02:05:33;;;;;;;;;40.00;36.25;;;;;8.88;77.33;100429.94;5056045;28;45185;-78
2022/11/14 02:07:59;;;;;;;;;40.25;36.00;;;;;8.99;77.28;100455.81;5055877;28;45777;-76
2022/11/14 02:10:24;;;;;;;;;47.50;40.25;;;;;9.00;77.23;100458.34;5055500;28;45338;-77
2022/11/14 02:12:50;;;;;;;;;38.50;34.25;;;;;9.00;77.15;100462.75;5055651;28;45462;-78
2022/11/14 02:15:16;;;;;;;;;39.50;36.00;;;;;8.97;76.98;100452.38;5055609;28;45474;-77
2022/11/14 02:17:43;;;;;;;;;47.00;39.50;;;;;8.93;77.54;100454.25;5053942;28;47704;-78
2022/11/14 02:20:08;;;;;;;;;41.00;35.75;;;;;8.91;77.23;100445.56;5055654;28;45800;-77
2022/11/14 02:22:34;;;;;;;;;37.00;33.50;;;;;8.84;77.42;100439.69;5056619;28;45320;-77
2022/11/14 02:24:59;;;;;;;;;44.00;38.00;;;;;8.83;77.21;100448.47;5059673;28;45330;-79
2022/11/14 02:27:25;;;;;;;;;46.50;38.75;;;;;8.72;77.55;100437.50;5058555;28;45452;-78
2022/11/14 02:29:50;;;;;;;;;40.50;35.75;;;;;8.80;77.67;100448.59;5057801;28;45340;-78
2022/11/14 02:32:15;;;;;;;;;42.50;37.75;;;;;8.71;77.47;100420.06;5055794;28;45306;-77
2022/11/14 02:34:41;;;;;;;;;47.75;40.75;;;;;8.81;77.53;100433.69;5055650;28;45220;-77
2022/11/14 02:37:06;;;;;;;;;43.00;36.75;;;;;8.73;78.05;100426.09;5054934;28;45326;-75
2022/11/14 02:39:31;;;;;;;;;38.00;34.50;;;;;8.73;78.41;100429.56;5055257;28;45403;-77
2022/11/14 02:41:57;;;;;;;;;42.25;36.25;;;;;8.59;78.16;100414.34;5055039;28;45275;-77
2022/11/14 02:44:22;;;;;;;;;47.25;39.25;;;;;8.68;78.29;100426.25;5056563;28;45521;-75
2022/11/14 02:46:47;;;;;;;;;46.00;40.00;;;;;8.70;78.17;100429.69;5068003;28;46621;-79
2022/11/14 02:49:13;;;;;;;;;44.00;36.50;;;;;8.70;78.68;100432.31;5073964;27;45339;-77
2022/11/14 02:51:40;;;;;;;;;40.75;35.75;;;;;8.68;78.68;100423.63;5076106;27;45320;-77
2022/11/14 02:54:05;;;;;;;;;49.25;41.00;;;;;8.64;78.55;100416.78;5075844;27;45451;-78
2022/11/14 02:56:31;;;;;;;;;44.00;39.00;;;;;8.65;78.64;100417.66;5075632;27;46164;-77
2022/11/14 02:58:56;;;;;;;;;43.25;38.25;;;;;8.65;78.95;100415.88;5076976;27;45816;-76
2022/11/14 03:01:21;;;;;;;;;43.75;36.75;;;;;8.66;78.61;100414.97;5078457;27;45253;-78
2022/11/14 03:03:47;;;;;;;;;45.50;38.00;;;;;8.66;78.73;100414.13;5079157;27;45601;-76
2022/11/14 03:06:12;;;;;;;;;36.00;33.50;;;;;8.61;78.45;100395.91;5074101;28;48183;-76
2022/11/14 03:08:38;;;;;;;;;38.00;34.25;;;;;8.61;78.19;100396.78;5074712;27;45368;-77
2022/11/14 03:11:05;;;;;;;;;37.75;34.50;;;;;8.64;78.42;100403.69;5075073;27;45860;-76
2022/11/14 03:13:30;;;;;;;;;37.50;34.00;;;;;8.55;78.29;100378.66;5073170;28;45585;-78
2022/11/14 03:15:56;;;;;;;;;33.75;32.25;;;;;8.67;78.18;100394.84;5074846;27;45467;-78
2022/11/14 03:18:21;;;;;;;;;38.25;34.00;;;;;8.39;77.97;100348.56;5073011;28;45380;-77
2022/11/14 03:20:47;;;;;;;;;36.00;33.50;;;;;8.57;78.34;100379.44;5074771;27;45263;-75
2022/11/14 03:23:12;;;;;;;;;31.50;31.00;;;;;8.71;78.33;100401.72;5074934;27;45251;-77
2022/11/14 03:25:37;;;;;;;;;32.75;31.75;;;;;8.68;78.17;100401.81;5075021;27;45408;-77
2022/11/14 03:28:03;;;;;;;;;33.75;32.75;;;;;8.59;78.42;100376.75;5063961;27;45367;-77
2022/11/14 03:30:30;;;;;;;;;29.00;28.75;;;;;8.62;78.61;100388.00;5052863;28;45420;-76
2022/11/14 03:32:56;;;;;;;;;30.00;30.00;;;;;8.64;78.58;100387.09;5054126;28;45327;-78
2022/11/14 03:35:21;;;;;;;;;32.75;30.75;;;;;8.65;78.33;100394.91;5053818;28;45484;-78
2022/11/14 03:37:46;;;;;;;;;30.75;29.75;;;;;8.61;78.26;100396.78;5054108;28;45394;-76
2022/11/14 03:40:11;;;;;;;;;34.00;31.75;;;;;8.56;78.05;100388.22;5054152;28;45331;-77
2022/11/14 03:42:37;;;;;;;;;28.00;26.75;;;;;8.49;78.49;100384.09;5055154;28;45321;-79
2022/11/14 03:45:02;;;;;;;;;27.50;27.00;;;;;8.53;78.53;100398.81;5052511;28;47167;-78
2022/11/14 03:47:28;;;;;;;;;37.50;34.25;;;;;8.56;78.01;100397.84;5054530;28;45346;-77
2022/11/14 03:49:53;;;;;;;;;35.50;32.75;;;;;8.52;78.82;100401.47;5069670;28;45376;-76
2022/11/14 03:52:19;;;;;;;;;31.75;30.75;;;;;8.50;78.99;100398.94;5054442;28;45584;-78
2022/11/14 03:54:44;;;;;;;;;35.25;33.50;;;;;8.47;78.95;100388.47;5054442;28;45379;-77
2022/11/14 03:57:09;;;;;;;;;31.00;30.50;;;;;8.51;78.63;100394.53;5055097;28;45851;-77
2022/11/14 03:59:35;;;;;;;;;31.50;30.00;;;;;8.52;79.16;100383.13;5054426;28;45383;-76
2022/11/14 04:02:00;;;;;;;;;25.25;24.50;;;;;8.59;78.98;100385.50;5053998;28;45404;-76
2022/11/14 04:04:25;;;;;;;;;30.25;29.25;;;;;8.62;79.41;100388.00;5054010;28;45249;-78
2022/11/14 04:06:51;;;;;;;;;25.75;25.75;;;;;8.50;78.94;100356.97;5052723;28;45402;-77
2022/11/14 04:09:16;;;;;;;;;26.00;25.25;;;;;8.69;79.39;100378.16;5056280;28;45245;-78
2022/11/14 04:11:41;;;;;;;;;29.50;28.25;;;;;8.67;78.96;100376.50;5056789;28;45304;-77
2022/11/14 04:14:08;;;;;;;;;35.75;32.50;;;;;8.67;79.19;100381.75;5056573;28;45585;-78
2022/11/14 04:16:34;;;;;;;;;30.00;30.00;;;;;8.64;79.44;100382.69;5055687;28;45333;-77
2022/11/14 04:18:59;;;;;;;;;32.50;31.50;;;;;8.62;79.30;100372.28;5053521;28;45169;-79
2022/11/14 04:21:24;;;;;;;;;40.00;33.75;;;;;8.66;79.20;100372.16;5052286;28;45516;-75
2022/11/14 04:23:50;;;;;;;;;35.50;33.25;;;;;8.65;79.22;100375.69;5053144;28;46253;-79
2022/11/14 04:26:15;;;;;;;;;37.50;34.50;;;;;8.52;79.44;100349.91;5055005;28;45307;-78
2022/11/14 04:28:41;;;;;;;;;39.25;34.00;;;;;8.57;79.63;100347.13;5057253;28;45401;-78
2022/11/14 04:31:06;;;;;;;;;35.00;33.00;;;;;8.58;79.31;100349.69;5056890;28;45422;-78
2022/11/14 04:33:31;;;;;;;;;38.50;34.25;;;;;8.74;79.42;100372.75;5055374;28;47253;-79
2022/11/14 04:35:56;;;;;;;;;37.00;31.50;;;;;8.75;79.67;100374.47;5056873;28;45461;-78
2022/11/14 04:38:22;;;;;;;;;37.25;33.25;;;;;8.68;79.45;100358.06;5056750;28;45347;-77
2022/11/14 04:40:49;;;;;;;;;43.75;38.00;;;;;8.80;79.27;100371.66;5057071;28;45381;-77
2022/11/14 04:43:14;;;;;;;;;40.00;36.25;;;;;8.73;79.41;100379.75;5056702;28;45616;-78
2022/11/14 04:45:40;;;;;;;;;34.75;31.50;;;;;8.72;79.21;100383.28;5057110;28;45279;-77
2022/11/14 04:48:05;;;;;;;;;32.00;31.00;;;;;8.69;79.71;100379.94;5056338;28;47360;-80
2022/11/14 04:50:30;;;;;;;;;37.75;34.00;;;;;8.66;79.92;100373.00;5057256;28;45236;-78
2022/11/14 04:52:56;;;;;;;;;36.25;33.75;;;;;8.67;80.01;100366.00;5056231;28;46661;-76
2022/11/14 04:55:21;;;;;;;;;40.00;36.00;;;;;8.73;79.98;100378.91;5056415;28;45309;-78
2022/11/14 04:57:46;;;;;;;;;38.00;34.75;;;;;8.72;79.65;100370.16;5056601;28;45391;-78
2022/11/14 05:00:12;;;;;;;;;38.25;35.00;;;;;8.74;79.75;100357.00;5057061;28;45507;-76
2022/11/14 05:02:38;;;;;;;;;36.75;34.25;;;;;8.76;80.11;100370.94;5056231;28;45411;-75
2022/11/14 05:05:03;;;;;;;;;39.00;34.50;;;;;8.74;80.19;100364.88;5056473;28;45320;-76
2022/11/14 05:07:29;;;;;;;;;39.50;36.25;;;;;8.79;80.42;100360.31;5056640;28;45806;-77
2022/11/14 05:09:54;;;;;;;;;36.50;33.75;;;;;8.76;80.10;100342.91;5056420;28;45284;-77
2022/11/14 05:12:19;;;;;;;;;42.25;34.25;;;;;8.79;79.97;100352.47;5055768;28;45364;-77
2022/11/14 05:14:45;;;;;;;;;35.25;33.50;;;;;8.80;80.25;100348.91;5055761;28;45359;-78
2022/11/14 05:17:10;;;;;;;;;45.25;37.75;;;;;8.81;80.30;100347.13;5056220;28;45279;-76
2022/11/14 05:19:35;;;;;;;;;36.25;32.75;;;;;8.73;80.20;100336.94;5056396;28;45297;-76
2022/11/14 05:22:01;;;;;;;;;38.00;34.00;;;;;8.76;80.51;100337.69;5056124;28;45492;-77
2022/11/14 05:24:27;;;;;;;;;32.50;31.25;;;;;8.68;80.22;100313.50;5056282;28;45447;-78
2022/11/14 05:26:52;;;;;;;;;39.75;33.75;;;;;8.83;80.68;100338.31;5056481;28;45334;-78
2022/11/14 05:29:18;;;;;;;;;42.50;37.75;;;;;8.84;80.52;100334.78;5056273;28;45425;-76
2022/11/14 05:31:43;;;;;;;;;32.50;31.00;;;;;8.84;80.31;100334.78;5056167;28;45367;-76
2022/11/14 05:34:09;;;;;;;;;33.00;31.25;;;;;8.74;80.47;100317.69;5056540;28;46045;-78
2022/11/14 05:36:34;;;;;;;;;35.00;33.25;;;;;8.80;80.48;100327.06;5056150;28;45608;-75
2022/11/14 05:38:59;;;;;;;;;44.00;37.25;;;;;8.86;80.58;100332.97;5056132;28;45464;-79
2022/11/14 05:41:25;;;;;;;;;40.50;36.00;;;;;8.84;80.50;100324.28;5054164;28;46670;-80
2022/11/14 05:43:50;;;;;;;;;32.75;31.50;;;;;8.86;80.80;100332.97;5054207;28;45902;-79
2022/11/14 05:46:16;;;;;;;;;33.75;32.00;;;;;8.87;80.73;100324.19;5055787;28;45300;-77
2022/11/14 05:48:41;;;;;;;;;37.25;33.50;;;;;8.89;80.67;100324.97;5056444;28;45615;-75
2022/11/14 05:51:10;;;;;;;;;32.25;31.00;;;;;8.87;80.71;100311.06;5056008;28;45300;-77
2022/11/14 05:53:35;;;;;;;;;38.50;34.75;;;;;8.88;80.83;100309.28;5055844;28;45383;-78
2022/11/14 05:56:06;;;;;;;;;37.00;33.00;;;;;8.89;80.58;100305.75;5057944;28;45339;-77
2022/11/14 05:58:33;;;;;;;;;37.75;34.00;;;;;8.83;80.86;100303.34;5068396;28;45377;-76
2022/11/14 06:01:18;;;;;;;;;34.25;30.50;;;;;8.90;80.81;100313.56;5075699;27;45439;-77
2022/11/14 06:03:46;;;;;;;;;36.00;33.00;;;;;8.88;80.92;100304.03;5074679;28;45266;-78
2022/11/14 06:06:15;;;;;;;;;38.00;34.75;;;;;8.86;80.94;100298.88;5075832;27;45511;-76
2022/11/14 06:08:41;;;;;;;;;37.00;33.00;;;;;8.89;81.06;100306.63;5075256;27;45571;-76
2022/11/14 06:11:10;;;;;;;;;39.50;36.00;;;;;8.84;81.26;100292.81;5074720;27;45419;-76
2022/11/14 06:13:36;;;;;;;;;38.25;34.50;;;;;8.88;81.05;100291.78;5074807;27;45819;-75
2022/11/14 06:16:09;;;;;;;;;36.25;33.75;;;;;8.81;81.29;100278.94;5073404;28;45429;-75
2022/11/14 06:18:35;;;;;;;;;34.75;33.00;;;;;8.82;81.27;100286.78;5075169;27;45397;-75
2022/11/14 06:21:03;;;;;;;;;36.75;33.75;;;;;8.75;81.63;100277.44;5074895;27;45511;-77
2022/11/14 06:23:29;;;;;;;;;36.25;33.75;;;;;8.82;81.16;100286.78;5074874;28;45980;-77
2022/11/14 06:26:06;;;;;;;;;31.75;30.25;;;;;8.88;81.50;100291.78;5090721;27;45395;-78
2022/11/14 06:28:31;;;;;;;;;36.50;33.00;;;;;8.73;81.71;100261.72;5075181;27;45522;-77
2022/11/14 06:31:02;;;;;;;;;34.00;32.75;;;;;8.89;81.31;100290.00;5074683;28;45933;-75
2022/11/14 06:33:28;;;;;;;;;32.00;31.00;;;;;8.53;82.00;100236.28;5075156;27;45320;-77
2022/11/14 06:35:58;;;;;;;;;38.00;34.00;;;;;8.90;81.86;100296.97;5075571;27;45717;-77
2022/11/14 06:38:24;;;;;;;;;31.50;29.50;;;;;8.94;81.61;100292.47;5075039;27;45446;-76
2022/11/14 06:40:49;;;;;;;;;31.50;30.50;;;;;8.90;81.13;100295.22;5075219;27;45190;-77
2022/11/14 06:43:14;;;;;;;;;31.00;31.00;;;;;8.91;81.80;100310.03;5074902;27;45220;-78
2022/11/14 06:45:40;;;;;;;;;36.50;33.75;;;;;8.91;81.72;100310.03;5075161;27;45322;-76
2022/11/14 06:48:06;;;;;;;;;33.25;32.25;;;;;8.93;81.75;100311.75;5106855;27;45618;-76
2022/11/14 06:50:31;;;;;;;;;37.00;34.00;;;;;8.85;81.10;100310.25;5074811;27;45448;-78
2022/11/14 06:52:57;;;;;;;;;37.25;32.25;;;;;8.89;81.39;100309.22;5074337;27;45436;-77
2022/11/14 06:55:23;;;;;;;;;38.50;35.00;;;;;8.82;81.83;100302.50;5074720;28;45407;-76
2022/11/14 06:57:53;;;;;;;;;33.50;31.75;;;;;8.85;81.64;100314.63;5075255;27;45415;-77
2022/11/14 07:00:19;;;;;;;;;33.00;32.00;;;;;8.82;81.92;100309.50;5074942;27;45324;-77
2022/11/14 07:02:45;;;;;;;;;36.00;33.50;;;;;8.85;82.13;100318.13;5074448;27;45264;-76
2022/11/14 07:05:10;;;;;;;;;29.00;28.75;;;;;8.88;82.08;100319.78;5074857;27;45351;-79
2022/11/14 07:07:35;;;;;;;;;29.75;29.50;;;;;8.88;81.88;100319.78;5074329;27;45554;-76
2022/11/14 07:10:01;;;;;;;;;39.25;34.25;;;;;8.93;81.92;100337.97;5075079;27;46368;-77
2022/11/14 07:12:28;;;;;;;;;42.00;34.75;;;;;8.82;81.90;100322.63;5073933;28;45562;-76
2022/11/14 07:14:53;;;;;;;;;32.50;32.00;;;;;8.85;81.74;100333.00;5074785;27;45383;-75
2022/11/14 07:17:19;;;;;;;;;36.50;33.00;;;;;8.84;81.44;100326.91;5075083;27;45310;-76
2022/11/14 07:19:44;;;;;;;;;40.50;35.75;;;;;8.84;81.58;100329.53;5072746;28;48165;-76
2022/11/14 07:22:09;;;;;;;;;42.75;38.00;;;;;8.85;81.51;100331.25;5074006;27;45455;-77
2022/11/14 07:24:35;;;;;;;;;37.25;33.75;;;;;8.73;81.79;100321.22;5075487;27;45282;-78
2022/11/14 07:27:01;;;;;;;;;40.50;34.00;;;;;8.86;81.79;100337.34;5109000;27;45196;-76
2022/11/14 07:29:26;;;;;;;;;31.25;31.00;;;;;8.72;81.46;100306.38;5076429;28;45557;-78
2022/11/14 07:31:51;;;;;;;;;32.75;31.50;;;;;8.83;81.89;100329.56;5075811;27;45349;-76
2022/11/14 07:34:17;;;;;;;;;29.50;28.75;;;;;8.81;81.53;100319.16;5075953;27;45342;-77
2022/11/14 07:36:43;;;;;;;;;31.25;30.50;;;;;8.53;81.01;100298.31;5076572;27;45223;-76
2022/11/14 07:39:11;;;;;;;;;32.50;31.50;;;;;8.76;81.37;100347.31;5075612;27;46431;-76
2022/11/14 07:41:37;;;;;;;;;30.25;30.25;;;;;8.65;82.00;100339.84;5076541;27;45424;-79
2022/11/14 07:44:02;;;;;;;;;27.50;27.50;;;;;8.61;81.39;100333.84;5075935;27;45401;-77
2022/11/14 07:46:27;;;;;;;;;31.75;30.75;;;;;8.76;81.55;100345.53;5076311;27;45508;-77
2022/11/14 07:48:53;;;;;;;;;29.00;28.75;;;;;8.77;81.05;100323.66;5075159;27;45688;-79
2022/11/14 07:51:19;;;;;;;;;33.50;30.75;;;;;8.75;81.08;100319.38;5075291;27;45778;-79
2022/11/14 07:53:45;;;;;;;;;31.50;31.00;;;;;8.89;81.25;100340.72;5074213;27;45291;-73
2022/11/14 07:56:10;;;;;;;;;31.00;30.50;;;;;8.76;80.84;100315.84;5074365;27;45280;-75
2022/11/14 07:58:38;;;;;;;;;34.50;32.75;;;;;8.95;80.88;100344.84;5073808;28;46441;-75
2022/11/14 08:01:05;;;;;;;;;36.00;34.00;;;;;8.85;80.61;100322.50;5076784;28;45326;-76
2022/11/14 08:03:31;;;;;;;;;38.75;34.75;;;;;8.99;80.39;100341.22;5076914;27;45413;-73
2022/11/14 08:06:00;;;;;;;;;33.25;31.75;;;;;9.03;80.61;100339.34;5076976;27;45522;-71
2022/11/14 08:08:25;;;;;;;;;34.25;32.50;;;;;9.03;80.15;100340.22;5076775;27;46318;-75
2022/11/14 08:10:54;;;;;;;;;31.25;31.00;;;;;9.01;79.88;100330.66;5077202;27;45180;-73
2022/11/14 08:13:19;;;;;;;;;34.75;33.50;;;;;9.02;80.07;100330.63;5075412;27;45276;-75
2022/11/14 08:15:44;;;;;;;;;33.00;32.00;;;;;9.06;79.79;100336.59;5079263;27;45753;-74
2022/11/14 08:18:10;;;;;;;;;32.50;30.75;;;;;9.09;80.25;100339.09;5072606;27;46552;-74
2022/11/14 08:20:35;;;;;;;;;33.00;31.50;;;;;9.14;79.72;100334.53;5122723;27;45518;-73
2022/11/14 08:23:03;;;;;;;;;29.25;29.25;;;;;9.17;79.79;100336.22;5093895;27;45445;-71
2022/11/14 08:25:28;;;;;;;;;35.00;33.50;;;;;9.20;79.76;100331.69;5092434;27;45639;-74
2022/11/14 08:27:53;;;;;;;;;29.00;27.75;;;;;9.23;79.31;100335.09;5076442;27;45393;-75
2022/11/14 08:30:19;;;;;;;;;31.50;31.00;;;;;9.25;79.11;100335.88;5073430;27;45544;-73
2022/11/14 08:32:44;;;;;;;;;28.50;28.50;;;;;9.24;79.66;100342.94;5065440;28;45460;-74
2022/11/14 08:35:10;;;;;;;;;26.75;26.75;;;;;9.22;78.68;100339.50;5065316;27;45573;-66
2022/11/14 08:37:35;;;;;;;;;27.75;27.75;;;;;9.03;79.07;100313.97;5073263;27;46752;-67
2022/11/14 08:40:00;;;;;;;;;28.75;27.50;;;;;9.14;79.18;100339.78;5077512;27;45514;-66
2022/11/14 08:42:26;;;;;;;;;28.75;28.50;;;;;9.18;79.24;100338.75;5067931;27;45350;-71
2022/11/14 08:44:51;;;;;;;;;32.75;31.00;;;;;9.19;79.38;100332.59;5056970;28;45513;-72
2022/11/14 08:47:17;;;;;;;;;26.50;26.50;;;;;9.24;79.35;100334.19;5056676;28;46452;-71
2022/11/14 08:49:42;;;;;;;;;32.75;32.25;;;;;9.23;79.18;100335.97;5062670;28;45520;-71
2022/11/14 08:52:08;;;;;;;;;28.75;28.75;;;;;9.27;78.95;100336.69;5056563;28;45448;-73
2022/11/14 08:54:33;;;;;;;;;24.75;23.50;;;;;9.29;79.07;100342.72;5056245;28;45184;-72
2022/11/14 08:56:59;;;;;;;;;26.50;26.25;;;;;9.26;78.76;100334.97;5089758;27;46414;-70
2022/11/14 08:59:24;;;;;;;;;25.25;25.25;;;;;9.33;78.80;100349.56;5057413;28;45179;-74
2022/11/14 09:01:50;;;;;;;;;30.75;30.50;;;;;9.30;78.62;100347.94;5054656;28;45778;-73
2022/11/14 09:04:15;;;;;;;;;29.75;29.75;;;;;9.32;79.04;100337.38;5056387;28;45549;-73
2022/11/14 09:06:41;;;;;;;;;24.75;24.75;;;;;9.37;79.13;100334.56;5056114;28;45438;-73
2022/11/14 09:09:06;;;;;;;;;27.25;27.00;;;;;9.40;78.76;100343.16;5056208;28;45439;-73
2022/11/14 09:11:31;;;;;;;;;24.75;24.75;;;;;9.50;78.53;100352.38;5055496;28;45370;-74
2022/11/14 09:13:57;;;;;;;;;33.25;32.25;;;;;9.50;78.68;100346.31;5056162;28;45237;-73
2022/11/14 09:16:22;;;;;;;;;31.75;31.50;;;;;9.57;78.30;100350.38;5054212;28;47168;-72
2022/11/14 09:18:48;;;;;;;;;23.50;23.50;;;;;9.59;78.41;100347.72;5054316;28;45281;-71
2022/11/14 09:21:13;;;;;;;;;26.25;26.00;;;;;9.63;78.40;100336.19;5056273;28;45309;-72
2022/11/14 09:23:39;;;;;;;;;28.25;27.75;;;;;9.68;78.05;100339.47;5056399;28;45505;-73
2022/11/14 09:26:06;;;;;;;;;29.50;29.50;;;;;9.74;78.07;100346.22;5054584;28;48347;-73
2022/11/14 09:28:32;;;;;;;;;26.25;25.75;;;;;9.78;77.53;100340.81;5056299;28;45322;-73
2022/11/14 09:31:05;;;;;;;;;27.00;27.00;;;;;9.78;77.48;100338.19;5055986;28;45334;-73
2022/11/14 09:33:31;;;;;;;;;33.00;30.75;;;;;9.83;77.82;100337.13;5055808;28;45264;-72
2022/11/14 09:36:02;;;;;;;;;34.50;33.50;;;;;9.87;77.91;100336.94;5055963;28;45292;-72
2022/11/14 09:38:28;;;;;;;;;26.50;25.75;;;;;9.94;77.74;100351.53;5056415;28;45369;-73
2022/11/14 09:41:02;;;;;;;;;23.75;23.00;;;;;9.99;77.61;100335.56;5055581;28;45419;-75
2022/11/14 09:43:38;;;;;;;;;36.50;32.50;;;;;10.06;77.47;100342.28;5055962;28;45323;-74
2022/11/14 09:46:13;;;;;;;;;30.25;29.50;;;;;10.05;76.85;100334.44;5055095;28;46291;-71
2022/11/14 09:48:38;;;;;;;;;31.00;30.50;;;;;9.99;76.87;100327.69;5055001;28;45377;-72
2022/11/14 09:51:08;;;;;;;;;29.00;28.75;;;;;10.00;77.02;100326.78;5055124;28;45342;-72
2022/11/14 09:53:47;;;;;;;;;32.00;31.25;;;;;10.03;76.86;100324.03;5055395;28;45217;-74
2022/11/14 09:56:19;;;;;;;;;29.00;29.00;;;;;10.07;77.15;100324.72;5055208;28;46189;-73
2022/11/14 09:58:44;;;;;;;;;30.50;30.25;;;;;10.13;77.14;100324.50;5054894;28;45370;-72
2022/11/14 10:01:35;;;;;;;;;28.50;28.25;;;;;10.18;77.28;100329.53;5054828;28;45221;-73
2022/11/14 10:04:45;;;;;;;;;30.25;28.50;;;;;10.21;76.58;100322.41;5070861;28;45500;-73
2022/11/14 10:07:29;;;;;;;;;26.75;26.75;;;;;10.18;76.13;100319.91;5039347;28;45518;-75
2022/11/14 10:10:16;;;;;;;;;30.50;30.25;;;;;10.17;76.02;100333.97;5054934;28;45312;-73
2022/11/14 10:13:08;;;;;;;;;31.75;30.50;;;;;10.16;76.06;100334.00;5055146;28;45397;-72
2022/11/14 10:15:39;;;;;;;;;25.50;25.50;;;;;10.18;76.73;100340.06;5031282;28;45455;-72
2022/11/14 10:18:07;;;;;;;;;28.75;28.75;;;;;10.19;76.69;100334.75;5070075;28;47918;-72
2022/11/14 10:21:09;;;;;;;;;19.75;18.75;;;;;10.26;76.12;100345.84;5054523;28;45676;-71
2022/11/14 10:24:31;;;;;;;;;26.75;26.75;;;;;10.28;76.44;100333.47;5045529;28;45330;-70
2022/11/14 10:27:02;;;;;;;;;33.00;32.25;;;;;10.36;75.58;100336.63;5049834;28;45355;-71
2022/11/14 10:29:52;;;;;;;;;31.00;30.50;;;;;10.36;75.65;100336.63;5054589;28;46674;-69
2022/11/14 10:32:17;;;;;;;;;36.00;33.50;;;;;10.37;75.22;100325.19;5054679;28;45373;-71
2022/11/14 10:34:58;;;;;;;;;36.50;34.25;;;;;10.36;75.01;100323.50;5054711;28;45390;-69
2022/11/14 10:37:45;;;;;;;;;38.50;33.50;;;;;10.37;75.16;100313.84;5054773;28;45268;-71
2022/11/14 10:40:40;;;;;;;;;35.75;33.75;;;;;10.45;75.40;100316.16;5054579;28;45510;-69
2022/11/14 10:43:28;;;;;;;;;27.00;27.00;;;;;10.49;74.96;100310.69;5053101;28;45434;-70
2022/11/14 10:45:59;;;;;;;;;32.25;32.25;;;;;10.57;74.84;100306.88;5070361;28;45456;-71
2022/11/14 10:48:37;;;;;;;;;36.75;34.00;;;;;10.59;75.12;100303.25;5070078;28;45565;-70
2022/11/14 10:51:26;;;;;;;;;29.50;29.50;;;;;10.59;74.39;100297.97;5054641;28;46023;-75
2022/11/14 10:53:54;;;;;;;;;30.00;30.00;;;;;10.57;74.29;100299.81;5054190;28;45292;-72
2022/11/14 10:56:20;;;;;;;;;31.25;29.75;;;;;10.54;74.47;100297.34;5069766;28;45418;-72
2022/11/14 10:58:46;;;;;;;;;34.75;33.50;;;;;10.50;75.06;100298.38;5054536;28;45292;-74
2022/11/14 11:01:41;;;;;;;;;25.50;24.25;;;;;10.55;75.19;100291.16;5052501;28;46578;-74
2022/11/14 11:04:24;;;;;;;;;31.25;31.25;;;;;10.62;75.19;100302.25;5048349;28;45425;-71
2022/11/14 11:06:53;;;;;;;;;34.25;32.50;;;;;10.63;74.24;100298.72;5069422;28;45398;-73
2022/11/14 11:12:14;;;;;;;;;32.25;31.00;;;;;10.64;74.45;100293.41;5054274;28;45299;-72
2022/11/14 11:14:40;;;;;;;;;33.50;32.50;;;;;10.65;74.89;100286.34;5054087;28;45294;-71
2022/11/14 11:17:19;;;;;;;;;36.00;33.75;;;;;10.54;74.24;100264.94;5053870;28;45176;-69
2022/11/14 11:19:47;;;;;;;;;33.50;32.00;;;;;10.74;74.37;100288.56;5054092;28;45284;-74
2022/11/14 11:22:37;;;;;;;;;49.25;41.50;;;;;10.81;74.09;100287.34;5053788;28;45482;-73